Aérodrome :
LOGIN :

S'inscrire | Disclaimer

   EN    FR    IT 

 










Légende :    VFR   VFR Marginal   IFR   IFR Intensif   IFR Très Intensif
Visi : 
Plafond : 
>= 8 km
>= 3000ft
5 à 8 km
1000 à 3000 ft
1500m à 5 km
500 à 1000 ft
800 à 1500m
200 à 500 ft
< 800m
< 200 ft
Symboles :   Orages  Brouillard  Fortes neiges  Fortes précipitations  Vent > 20 kt
SIGMETs :   Divers  Orages  Givrage  Turbulence  Onde Orograph.  Cendres Volcan.







- Altitude de l'aérodrome : 11 ft
- Code IATA : MJV


LELC - Murcia San Javier

DERNIER METAR :
  • 202000Z AUTO 05016KT 020V080 9999 NCD 27/23 Q1017

METARs EXPIRÉS :
  • 201930Z AUTO 05016KT 9999 BKN015 BKN025 BKN030 27/23 Q1017
  • 201900Z AUTO 05016KT 020V080 9000 SCT013 BKN018 27/23 Q1016
  • 201830Z AUTO 07013G23KT 030V110 9999 BKN021 BKN029 BKN034 28/23 Q1016
  • 201800Z AUTO 07011KT 040V110 9999 SCT019 28/23 Q1016
  • 201730Z AUTO 07010KT 030V120 9999 BKN020 BKN027 28/23 Q1016
  • 201700Z AUTO 07010KT 020V120 9999 BKN019 28/23 Q1016

TAF TAF LELC
Valide du 20 à 18h jusqu'au 21 à 18h UTC


201700Z 2018/2118 07012KT 9999 SCT020 SCT040 TX29/2112Z TN24/2106Z
PROB30
TEMPO 2019/2024 06015G25KT
PROB40
TEMPO 2018/2108 BKN014
PROB30
TEMPO 2100/2106 4000 -RA BR
PROB40
TEMPO 2108/2117 06015G25KT
Pas de NOTAMs connus pour ce terrain.



MET'MAP, la Météo Aéronautique d'un coup d'oeil ! - Copyright ORBIFLY Décembre 2007 - Disclaimer

ORBIFLY MET'MAP TEAM :

Programmation & Développement : Alexandra Zaïnal
Conception & Développement : Baudouin d'Aumeries
Co-Programmation & Développement : Marc-Olivier Méhu
Soutien technique & logistique : Manuel Goepfert

Contact : metmap@orbifly.com




SOURCES & CREDITS :

   NOAA